Time;durP1;ratioP1;P1;durP2;ratioP2;P2;SDS_P1;SDS_P2;PMS_P1;PMS_P2;Temp;Humidity;BMP_temperature;BMP_pressure;BME280_temperature;BME280_humidity;BME280_pressure;Samples;Min_cycle;Max_cycle;Signal;HPM_P1;HPM_P2
2023/05/09 00:02:15;;;;;;;5.25;1.80;;;13.80;99.90;;;;;;5056450;28;20615;-73
2023/05/09 00:04:42;;;;;;;2.78;1.70;;;13.80;99.90;;;;;;5054564;28;20418;-73
2023/05/09 00:07:09;;;;;;;4.43;1.70;;;13.80;99.90;;;;;;5060350;28;20419;-73
2023/05/09 00:09:35;;;;;;;4.23;1.83;;;13.70;99.90;;;;;;5061433;28;20424;-73
2023/05/09 00:12:02;;;;;;;6.68;1.85;;;13.70;99.90;;;;;;5055490;28;20749;-73
2023/05/09 00:14:29;;;;;;;4.95;1.65;;;13.50;99.90;;;;;;5055941;28;20415;-73
2023/05/09 00:16:58;;;;;;;5.17;1.90;;;13.40;99.90;;;;;;5051032;28;21252;-73
2023/05/09 00:19:24;;;;;;;3.67;1.73;;;13.40;99.90;;;;;;5061571;28;20465;-73
2023/05/09 00:21:50;;;;;;;5.07;2.08;;;13.40;99.90;;;;;;5060098;28;20496;-73
2023/05/09 00:24:16;;;;;;;8.88;2.42;;;13.50;99.90;;;;;;5069523;28;20420;-73
2023/05/09 00:26:43;;;;;;;6.45;2.20;;;13.50;99.90;;;;;;5042913;28;20441;-72
2023/05/09 00:29:09;;;;;;;7.37;2.40;;;13.50;99.90;;;;;;5057890;28;20465;-73
2023/05/09 00:31:35;;;;;;;5.00;2.17;;;13.50;99.90;;;;;;5059271;28;20969;-73
2023/05/09 00:34:01;;;;;;;3.90;1.90;;;13.40;99.90;;;;;;5057761;28;20552;-72
2023/05/09 00:36:27;;;;;;;5.00;2.07;;;13.40;99.90;;;;;;5060924;28;20498;-73
2023/05/09 00:38:54;;;;;;;4.93;1.90;;;13.40;99.90;;;;;;5066702;28;20918;-73
2023/05/09 00:41:20;;;;;;;6.72;2.00;;;13.40;99.90;;;;;;5055056;28;20404;-72
2023/05/09 00:43:47;;;;;;;5.23;1.87;;;13.40;99.90;;;;;;5056289;28;20543;-73
2023/05/09 00:46:13;;;;;;;4.97;1.85;;;13.40;99.90;;;;;;5056712;28;20963;-73
2023/05/09 00:48:40;;;;;;;7.10;2.13;;;13.30;99.90;;;;;;5057940;28;20403;-72
2023/05/09 00:51:06;;;;;;;4.30;2.00;;;13.20;99.90;;;;;;5059958;28;20446;-73
2023/05/09 00:53:33;;;;;;;4.75;1.95;;;13.10;99.90;;;;;;5063581;28;20896;-73
2023/05/09 00:56:00;;;;;;;4.77;1.90;;;13.00;99.90;;;;;;5059932;28;20511;-73
2023/05/09 00:58:27;;;;;;;5.28;1.90;;;13.10;99.90;;;;;;5059540;28;20418;-73
2023/05/09 01:00:53;;;;;;;4.45;2.17;;;13.20;99.90;;;;;;5058508;28;20545;-73
2023/05/09 01:03:20;;;;;;;5.65;2.30;;;13.20;99.90;;;;;;5054613;28;20929;-73
2023/05/09 01:06:10;;;;;;;4.37;2.07;;;13.20;99.90;;;;;;5052672;28;20996;-72
2023/05/09 01:09:02;;;;;;;4.88;2.00;;;13.10;99.90;;;;;;5059092;28;20415;-73
2023/05/09 01:11:51;;;;;;;4.57;2.10;;;13.20;99.90;;;;;;5061479;28;21053;-73
2023/05/09 01:14:38;;;;;;;3.92;2.05;;;13.20;99.90;;;;;;5056795;28;20412;-73
2023/05/09 01:17:12;;;;;;;4.00;2.00;;;13.30;99.90;;;;;;5081220;28;20426;-73
2023/05/09 01:20:17;;;;;;;5.13;2.15;;;13.10;99.90;;;;;;5065065;28;20939;-73
2023/05/09 01:22:54;;;;;;;6.38;2.15;;;12.90;99.90;;;;;;5059877;28;20436;-73
2023/05/09 01:26:02;;;;;;;6.38;2.30;;;12.90;99.90;;;;;;5070539;28;20440;-73
2023/05/09 01:29:03;;;;;;;6.53;2.40;;;12.90;99.90;;;;;;5058463;28;20534;-73
2023/05/09 01:31:33;;;;;;;3.45;2.00;;;12.90;99.90;;;;;;5058373;28;20434;-72
2023/05/09 01:34:04;;;;;;;6.30;2.40;;;12.80;99.90;;;;;;5058746;28;20407;-73
2023/05/09 01:36:33;;;;;;;4.55;2.33;;;12.80;99.90;;;;;;5057304;28;20928;-73
2023/05/09 01:39:02;;;;;;;4.22;2.50;;;12.90;99.90;;;;;;5057323;28;20941;-72
2023/05/09 01:41:36;;;;;;;4.97;2.10;;;12.90;99.90;;;;;;5060243;28;20408;-73
2023/05/09 01:44:08;;;;;;;5.40;2.35;;;13.00;99.90;;;;;;5052502;28;20390;-73
2023/05/09 01:46:37;;;;;;;3.80;2.53;;;13.10;99.90;;;;;;5057573;28;20415;-72
2023/05/09 01:49:07;;;;;;;4.65;2.30;;;13.30;99.90;;;;;;5060862;28;20459;-72
2023/05/09 01:51:36;;;;;;;3.78;2.40;;;13.50;99.90;;;;;;5064062;28;20417;-71
2023/05/09 01:54:05;;;;;;;4.05;2.40;;;13.60;99.90;;;;;;5060292;28;20517;-71
2023/05/09 01:56:34;;;;;;;4.00;2.20;;;13.50;99.90;;;;;;5059921;28;20455;-72
2023/05/09 01:59:05;;;;;;;4.85;2.15;;;13.40;99.90;;;;;;5066897;28;20410;-72
2023/05/09 02:01:32;;;;;;;4.40;2.22;;;13.20;99.90;;;;;;5062740;28;21077;-72
2023/05/09 02:04:00;;;;;;;4.65;2.30;;;13.10;99.90;;;;;;5061252;28;20790;-72
2023/05/09 02:06:28;;;;;;;4.97;2.50;;;13.10;99.90;;;;;;5063869;28;20430;-72
2023/05/09 02:08:56;;;;;;;4.47;2.45;;;13.30;99.90;;;;;;5058818;28;20417;-72
2023/05/09 02:11:22;;;;;;;4.20;2.33;;;13.40;99.90;;;;;;5057886;28;21251;-72
2023/05/09 02:13:49;;;;;;;4.53;2.30;;;13.40;99.90;;;;;;5059182;28;20417;-72
2023/05/09 02:16:15;;;;;;;5.82;2.30;;;13.50;99.90;;;;;;5060511;28;20424;-72
2023/05/09 02:18:42;;;;;;;4.72;2.30;;;13.40;99.90;;;;;;5057614;28;20426;-72
2023/05/09 02:21:08;;;;;;;5.63;2.28;;;13.20;99.90;;;;;;5061022;28;20408;-72
2023/05/09 02:23:35;;;;;;;3.58;2.20;;;13.10;99.90;;;;;;5060811;28;20409;-72
2023/05/09 02:26:02;;;;;;;3.23;2.10;;;13.20;99.90;;;;;;5058649;28;21145;-72
2023/05/09 02:28:29;;;;;;;3.22;1.92;;;13.20;99.90;;;;;;5075734;28;20411;-72
2023/05/09 02:31:00;;;;;;;5.00;2.30;;;13.20;99.90;;;;;;5064106;28;20435;-72
2023/05/09 02:33:28;;;;;;;5.07;2.10;;;13.20;99.90;;;;;;5060880;28;20955;-72
2023/05/09 02:35:56;;;;;;;5.28;2.38;;;13.20;99.90;;;;;;5059152;28;20410;-72
2023/05/09 02:38:23;;;;;;;4.45;2.03;;;13.20;99.90;;;;;;5071333;28;20880;-72
2023/05/09 02:40:50;;;;;;;5.72;2.20;;;13.20;99.90;;;;;;5057843;28;20435;-72
2023/05/09 02:43:16;;;;;;;5.80;2.22;;;13.10;99.90;;;;;;5058832;28;20711;-72
2023/05/09 02:45:42;;;;;;;4.22;2.00;;;13.00;99.90;;;;;;5059072;28;21196;-72
2023/05/09 02:48:09;;;;;;;3.85;2.03;;;12.90;99.90;;;;;;5059628;28;20415;-72
2023/05/09 02:50:37;;;;;;;3.70;1.88;;;12.70;99.90;;;;;;5062128;28;20420;-72
2023/05/09 02:53:03;;;;;;;4.38;2.10;;;12.60;99.90;;;;;;5057120;28;20414;-72
2023/05/09 02:55:30;;;;;;;3.80;2.00;;;12.70;99.90;;;;;;5051711;28;21078;-72
2023/05/09 02:57:56;;;;;;;4.95;2.25;;;12.70;99.90;;;;;;5041177;28;20416;-72
2023/05/09 03:00:24;;;;;;;4.57;2.20;;;12.80;99.90;;;;;;5058825;28;20420;-72
2023/05/09 03:02:51;;;;;;;4.55;2.20;;;12.90;99.90;;;;;;5059422;28;20501;-73
2023/05/09 03:05:17;;;;;;;3.37;2.00;;;13.00;99.90;;;;;;5055407;28;22239;-72
2023/05/09 03:07:44;;;;;;;3.78;1.95;;;13.00;99.90;;;;;;5058248;28;20407;-72
2023/05/09 03:10:11;;;;;;;5.43;2.28;;;13.00;99.90;;;;;;5061098;28;20445;-72
2023/05/09 03:12:38;;;;;;;4.75;2.28;;;13.10;99.90;;;;;;5056631;28;20448;-72
2023/05/09 03:15:08;;;;;;;3.47;2.08;;;13.10;99.90;;;;;;5058851;28;20415;-72
2023/05/09 03:17:34;;;;;;;3.78;2.05;;;13.00;99.90;;;;;;5056566;28;20415;-72
2023/05/09 03:20:03;;;;;;;3.90;2.20;;;13.20;99.90;;;;;;5043622;28;20421;-72
2023/05/09 03:22:30;;;;;;;4.68;2.08;;;13.30;99.90;;;;;;5042680;28;20415;-72
2023/05/09 03:24:57;;;;;;;4.65;2.25;;;13.30;99.90;;;;;;5056730;28;20524;-72
2023/05/09 03:27:25;;;;;;;4.65;2.03;;;13.40;99.90;;;;;;5059270;28;20442;-72
2023/05/09 03:29:51;;;;;;;3.83;1.90;;;13.50;99.90;;;;;;5058092;28;20407;-72
2023/05/09 03:32:17;;;;;;;4.43;2.05;;;13.60;99.90;;;;;;5056058;28;20450;-72
2023/05/09 03:34:43;;;;;;;3.65;2.10;;;13.60;99.90;;;;;;5061892;28;20627;-72
2023/05/09 03:37:09;;;;;;;3.97;2.10;;;13.70;99.90;;;;;;5057194;28;20460;-72
2023/05/09 03:39:36;;;;;;;5.57;2.00;;;13.70;99.90;;;;;;5057277;28;20434;-72
2023/05/09 03:42:02;;;;;;;5.00;1.95;;;13.60;99.90;;;;;;5061307;28;20424;-72
2023/05/09 03:44:28;;;;;;;3.63;2.00;;;13.50;99.90;;;;;;5060082;28;20420;-72
2023/05/09 03:46:54;;;;;;;3.13;1.90;;;13.40;99.90;;;;;;5064919;28;20993;-72
2023/05/09 03:49:20;;;;;;;4.32;2.00;;;13.50;99.90;;;;;;5055389;28;20764;-72
2023/05/09 03:51:47;;;;;;;5.70;2.10;;;13.50;99.90;;;;;;5061130;28;20920;-72
2023/05/09 03:54:13;;;;;;;4.55;2.08;;;13.60;99.90;;;;;;5054534;28;20465;-72
2023/05/09 03:56:39;;;;;;;2.90;1.88;;;13.70;99.90;;;;;;5058538;28;20423;-72
2023/05/09 03:59:05;;;;;;;3.50;2.13;;;13.70;99.90;;;;;;5060287;28;20496;-72
2023/05/09 04:01:32;;;;;;;4.27;1.90;;;13.80;99.90;;;;;;5053233;28;20427;-72
2023/05/09 04:03:58;;;;;;;4.13;2.05;;;13.90;99.90;;;;;;5055977;28;20402;-72
2023/05/09 04:06:24;;;;;;;3.47;1.83;;;14.00;99.90;;;;;;5055180;28;20407;-72
2023/05/09 04:08:51;;;;;;;4.50;2.20;;;14.10;99.90;;;;;;5060161;28;20502;-72
2023/05/09 04:11:17;;;;;;;4.25;1.90;;;14.10;99.90;;;;;;5056114;28;20399;-72
2023/05/09 04:13:44;;;;;;;3.60;2.00;;;14.10;99.90;;;;;;5058053;28;20435;-72
2023/05/09 04:16:10;;;;;;;3.50;2.10;;;14.20;99.90;;;;;;5057872;28;20455;-72
2023/05/09 04:18:38;;;;;;;3.40;1.98;;;14.20;99.90;;;;;;5060087;28;20854;-72
2023/05/09 04:21:05;;;;;;;3.58;2.08;;;14.30;99.90;;;;;;5057379;28;20414;-72
2023/05/09 04:23:31;;;;;;;5.82;2.10;;;14.40;99.90;;;;;;5061444;28;20431;-72
2023/05/09 04:25:57;;;;;;;3.15;2.20;;;14.50;99.90;;;;;;5057792;28;20416;-72
2023/05/09 04:28:23;;;;;;;3.63;2.30;;;14.70;99.90;;;;;;5041866;28;20406;-72
2023/05/09 04:30:50;;;;;;;2.83;1.80;;;14.90;99.90;;;;;;5057885;28;20855;-72
2023/05/09 04:33:16;;;;;;;3.42;1.90;;;15.10;99.90;;;;;;5058291;28;20981;-72
2023/05/09 04:35:43;;;;;;;2.97;1.90;;;15.00;99.90;;;;;;5062203;28;21114;-72
2023/05/09 04:38:09;;;;;;;2.88;1.90;;;15.10;99.90;;;;;;5060335;28;21168;-72
2023/05/09 04:40:35;;;;;;;2.47;1.80;;;15.10;99.90;;;;;;5059466;28;20414;-72
2023/05/09 04:43:02;;;;;;;3.30;1.90;;;15.10;99.90;;;;;;5054551;28;20903;-72
2023/05/09 04:45:29;;;;;;;3.45;2.10;;;15.30;99.90;;;;;;5058009;28;20445;-72
2023/05/09 04:47:55;;;;;;;3.00;1.80;;;15.20;99.90;;;;;;5055347;28;20519;-72
2023/05/09 04:50:21;;;;;;;2.58;1.80;;;15.20;99.90;;;;;;5074049;28;21435;-72
2023/05/09 04:52:48;;;;;;;3.25;2.00;;;15.20;99.90;;;;;;5064781;28;20460;-72
2023/05/09 04:55:14;;;;;;;3.28;2.03;;;15.20;99.90;;;;;;5058763;28;20426;-72
2023/05/09 04:57:40;;;;;;;4.03;2.00;;;15.30;99.90;;;;;;5054929;28;20411;-72
2023/05/09 05:00:09;;;;;;;3.03;2.03;;;15.30;99.90;;;;;;5042767;28;20496;-72
2023/05/09 05:02:36;;;;;;;3.42;2.17;;;15.30;99.90;;;;;;5056597;28;20548;-72
2023/05/09 05:05:02;;;;;;;3.53;2.00;;;15.40;99.90;;;;;;5055242;28;21217;-72
2023/05/09 05:07:29;;;;;;;3.50;2.13;;;15.40;99.90;;;;;;5054322;28;20411;-72
2023/05/09 05:09:55;;;;;;;3.40;1.90;;;15.40;99.90;;;;;;5054417;28;20446;-73
2023/05/09 05:12:21;;;;;;;4.38;1.88;;;15.50;99.90;;;;;;5057308;28;20417;-72
2023/05/09 05:14:48;;;;;;;4.32;1.90;;;15.50;99.90;;;;;;5056226;28;20427;-72
2023/05/09 05:17:16;;;;;;;3.03;1.83;;;15.50;99.90;;;;;;5056671;28;20918;-72
2023/05/09 05:19:42;;;;;;;2.60;1.83;;;15.50;99.90;;;;;;5059375;28;20432;-72
2023/05/09 05:22:08;;;;;;;4.53;2.00;;;15.60;99.90;;;;;;5062927;28;20415;-72
2023/05/09 05:24:34;;;;;;;3.50;1.90;;;15.70;99.90;;;;;;5063708;28;20408;-72
2023/05/09 05:27:00;;;;;;;3.28;1.80;;;15.70;99.90;;;;;;5063613;28;20414;-73
2023/05/09 05:29:27;;;;;;;3.70;2.03;;;15.70;99.90;;;;;;5060940;28;20518;-72
2023/05/09 05:31:53;;;;;;;3.92;1.83;;;15.80;99.90;;;;;;5062741;28;20416;-72
2023/05/09 05:34:19;;;;;;;4.57;1.70;;;15.80;99.90;;;;;;5057361;28;20419;-72
2023/05/09 05:36:46;;;;;;;4.15;2.10;;;15.90;99.90;;;;;;5057612;28;20410;-72
2023/05/09 05:39:12;;;;;;;3.65;1.90;;;15.90;99.90;;;;;;5065318;28;20448;-72
2023/05/09 05:41:38;;;;;;;3.13;1.98;;;16.00;99.90;;;;;;5061962;28;20897;-72
2023/05/09 05:44:05;;;;;;;3.50;1.90;;;16.10;99.90;;;;;;5076539;28;20551;-72
2023/05/09 05:46:31;;;;;;;3.40;1.77;;;16.20;99.90;;;;;;5056799;28;20793;-72
2023/05/09 05:48:57;;;;;;;2.95;1.88;;;16.30;99.90;;;;;;5062137;28;20427;-72
2023/05/09 05:51:23;;;;;;;2.40;1.80;;;16.30;99.90;;;;;;5059711;28;20420;-73
2023/05/09 05:53:50;;;;;;;3.15;1.80;;;16.40;99.90;;;;;;5064133;28;20415;-73
2023/05/09 05:56:16;;;;;;;5.07;1.70;;;16.50;99.90;;;;;;5060490;28;20450;-72
2023/05/09 05:58:42;;;;;;;2.83;1.80;;;16.50;99.90;;;;;;5059339;28;20604;-73
2023/05/09 06:01:08;;;;;;;3.08;1.80;;;16.60;99.90;;;;;;5058662;28;20503;-72
2023/05/09 06:03:35;;;;;;;3.27;1.87;;;16.70;99.90;;;;;;5053528;28;20410;-72
2023/05/09 06:06:01;;;;;;;2.85;1.70;;;16.80;99.90;;;;;;5061285;28;20851;-72
2023/05/09 06:08:27;;;;;;;3.15;1.90;;;16.90;99.90;;;;;;5057730;28;20447;-72
2023/05/09 06:10:54;;;;;;;3.90;2.00;;;17.00;99.90;;;;;;5054760;28;20414;-73
2023/05/09 06:13:20;;;;;;;4.20;1.85;;;17.00;99.90;;;;;;5066656;28;20423;-73
2023/05/09 06:15:47;;;;;;;3.88;1.98;;;17.00;99.90;;;;;;5058279;28;20514;-73
2023/05/09 06:18:13;;;;;;;4.07;1.83;;;17.20;99.90;;;;;;5048788;28;20524;-72
2023/05/09 06:20:39;;;;;;;3.60;1.80;;;17.20;99.90;;;;;;5055138;28;20198;-72
2023/05/09 06:23:06;;;;;;;3.37;1.87;;;17.30;99.90;;;;;;5054864;28;20204;-72
2023/05/09 06:25:32;;;;;;;3.60;2.17;;;17.40;99.90;;;;;;5077050;28;20193;-72
2023/05/09 06:27:58;;;;;;;3.70;2.03;;;17.40;99.90;;;;;;5057581;28;20202;-72
2023/05/09 06:30:24;;;;;;;3.13;1.93;;;17.50;99.90;;;;;;5056510;28;20186;-73
2023/05/09 06:32:50;;;;;;;3.30;1.90;;;17.60;99.90;;;;;;5077414;28;20286;-72
2023/05/09 06:35:17;;;;;;;6.67;2.37;;;17.60;99.90;;;;;;5053421;28;20190;-72
2023/05/09 06:37:43;;;;;;;4.40;2.30;;;17.60;99.90;;;;;;5056756;28;20269;-73
2023/05/09 06:40:09;;;;;;;7.13;2.10;;;17.70;99.90;;;;;;5058784;28;21013;-72
2023/05/09 06:42:36;;;;;;;6.27;2.33;;;17.80;99.90;;;;;;5056888;28;20187;-72
2023/05/09 06:45:02;;;;;;;4.00;2.37;;;17.90;99.90;;;;;;5059217;28;20286;-73
2023/05/09 06:47:28;;;;;;;4.70;2.33;;;18.00;99.90;;;;;;5058697;28;20628;-72
2023/05/09 06:49:54;;;;;;;4.23;2.00;;;18.00;99.90;;;;;;5055197;28;20186;-72
2023/05/09 06:52:21;;;;;;;6.57;2.10;;;18.10;99.90;;;;;;5045597;28;20694;-73
2023/05/09 06:54:47;;;;;;;5.27;2.13;;;18.10;99.90;;;;;;5058676;28;20555;-73
2023/05/09 06:57:13;;;;;;;4.00;2.33;;;18.10;99.90;;;;;;5060601;28;20206;-73
2023/05/09 06:59:39;;;;;;;4.67;2.40;;;18.20;99.90;;;;;;5056456;28;20282;-73
2023/05/09 07:02:06;;;;;;;4.17;2.53;;;18.30;99.90;;;;;;5087032;28;20183;-72
2023/05/09 07:04:33;;;;;;;6.17;2.30;;;18.40;99.90;;;;;;5053673;28;20198;-72
2023/05/09 07:06:59;;;;;;;3.67;2.10;;;18.40;99.90;;;;;;5061815;28;20201;-72
2023/05/09 07:09:27;;;;;;;5.43;2.43;;;18.50;99.90;;;;;;5060379;28;20198;-73
2023/05/09 07:11:55;;;;;;;3.30;2.10;;;18.60;99.90;;;;;;5071735;28;20278;-72
2023/05/09 07:14:22;;;;;;;3.63;1.87;;;18.60;99.90;;;;;;5052235;28;20623;-72
2023/05/09 07:16:48;;;;;;;6.30;2.10;;;18.70;99.90;;;;;;5054525;28;20213;-73
2023/05/09 07:19:14;;;;;;;7.07;2.07;;;18.80;99.90;;;;;;5057769;28;20242;-73
2023/05/09 07:21:40;;;;;;;3.10;2.10;;;18.90;99.90;;;;;;5055341;28;20183;-72
2023/05/09 07:24:07;;;;;;;3.03;2.20;;;18.90;99.90;;;;;;5057798;28;20191;-72
2023/05/09 07:26:35;;;;;;;10.07;2.70;;;19.00;99.90;;;;;;5057640;28;20277;-73
2023/05/09 07:29:01;;;;;;;10.70;2.50;;;19.10;99.90;;;;;;5058314;28;20195;-72
2023/05/09 07:31:28;;;;;;;5.27;2.30;;;19.10;99.90;;;;;;5060456;28;20204;-73
2023/05/09 07:33:55;;;;;;;5.90;2.30;;;19.30;99.90;;;;;;5062105;28;20233;-72
2023/05/09 07:36:21;;;;;;;5.43;2.27;;;19.40;99.90;;;;;;5058106;28;20237;-72
2023/05/09 07:38:49;;;;;;;6.43;2.30;;;19.40;99.90;;;;;;5061293;28;20214;-73
2023/05/09 07:41:15;;;;;;;4.93;2.60;;;19.50;99.90;;;;;;5058341;28;20310;-72
2023/05/09 07:43:41;;;;;;;3.23;2.10;;;19.60;99.90;;;;;;5057506;28;20500;-73
2023/05/09 07:46:07;;;;;;;4.90;2.20;;;19.60;99.90;;;;;;5045078;28;20191;-73
2023/05/09 07:48:34;;;;;;;3.77;2.10;;;19.70;99.90;;;;;;5052077;28;20409;-72
2023/05/09 07:51:00;;;;;;;3.83;1.87;;;19.70;99.90;;;;;;5072806;28;20662;-72
2023/05/09 07:53:27;;;;;;;3.97;2.27;;;19.80;99.90;;;;;;5072976;28;20190;-72
2023/05/09 07:55:53;;;;;;;3.70;1.80;;;19.90;99.90;;;;;;5061414;28;20183;-73
2023/05/09 07:58:19;;;;;;;3.83;2.00;;;19.90;99.90;;;;;;5047841;28;20241;-72
2023/05/09 08:00:45;;;;;;;2.90;2.00;;;20.00;99.90;;;;;;5059042;28;20222;-72
2023/05/09 08:03:12;;;;;;;4.27;2.10;;;20.00;99.90;;;;;;5055905;28;20575;-72
2023/05/09 08:05:38;;;;;;;3.23;1.60;;;20.10;99.90;;;;;;5061089;28;20261;-72
2023/05/09 08:08:04;;;;;;;4.47;2.00;;;20.30;99.90;;;;;;5074273;28;20195;-72
2023/05/09 08:10:32;;;;;;;4.77;2.13;;;20.30;99.90;;;;;;5061259;28;20248;-72
2023/05/09 08:12:58;;;;;;;4.77;2.10;;;20.40;99.90;;;;;;5058530;28;20202;-72
2023/05/09 08:15:25;;;;;;;4.23;1.90;;;20.50;99.90;;;;;;5065295;28;20190;-72
2023/05/09 08:17:51;;;;;;;3.03;1.87;;;20.60;99.90;;;;;;5056073;28;20303;-72
2023/05/09 08:20:18;;;;;;;8.03;2.30;;;20.60;99.90;;;;;;5054935;28;20262;-72
2023/05/09 08:22:44;;;;;;;6.37;1.70;;;20.80;99.90;;;;;;5059515;28;20842;-73
2023/05/09 08:25:12;;;;;;;3.07;1.60;;;20.80;99.90;;;;;;5076676;28;21404;-73
2023/05/09 08:27:38;;;;;;;1.87;1.70;;;20.90;99.90;;;;;;5055485;28;20195;-73
2023/05/09 08:30:09;;;;;;;5.70;1.80;;;21.10;99.90;;;;;;5043342;28;20210;-72
2023/05/09 08:32:35;;;;;;;7.70;2.10;;;21.10;99.90;;;;;;5055565;28;20223;-72
2023/05/09 08:35:01;;;;;;;4.53;2.10;;;21.10;99.90;;;;;;5059545;28;20252;-72
2023/05/09 08:37:28;;;;;;;2.13;1.73;;;21.10;99.90;;;;;;5072954;28;20329;-73
2023/05/09 08:39:54;;;;;;;3.00;1.90;;;21.20;99.90;;;;;;5062416;28;20293;-72
2023/05/09 08:42:22;;;;;;;3.97;1.93;;;21.30;99.90;;;;;;5074008;28;20178;-73
2023/05/09 08:44:48;;;;;;;5.67;2.00;;;21.30;99.90;;;;;;5057803;28;20325;-73
2023/05/09 08:47:16;;;;;;;5.37;2.10;;;21.40;99.90;;;;;;5057260;28;20243;-72
2023/05/09 08:49:44;;;;;;;5.67;2.33;;;21.50;99.90;;;;;;5063584;28;20195;-73
2023/05/09 08:52:10;;;;;;;5.27;1.70;;;21.60;99.90;;;;;;5060169;28;20230;-73
2023/05/09 08:54:37;;;;;;;5.47;1.80;;;21.50;99.90;;;;;;5072157;28;20202;-73
2023/05/09 08:57:04;;;;;;;4.60;2.20;;;21.60;99.90;;;;;;5059420;28;20211;-72
2023/05/09 08:59:36;;;;;;;4.23;2.17;;;21.70;99.90;;;;;;5042979;28;20197;-72
2023/05/09 09:02:06;;;;;;;4.13;2.20;;;21.80;99.90;;;;;;5059782;28;20738;-72
2023/05/09 09:04:33;;;;;;;5.03;2.10;;;21.80;99.90;;;;;;5061419;28;20231;-72
2023/05/09 09:07:03;;;;;;;5.27;2.30;;;21.70;99.90;;;;;;5043181;28;20204;-72
2023/05/09 09:09:29;;;;;;;4.50;2.63;;;21.70;99.90;;;;;;5061329;28;20206;-72
2023/05/09 09:11:57;;;;;;;4.40;2.43;;;21.70;99.90;;;;;;5059224;28;20825;-72
2023/05/09 09:14:26;;;;;;;5.53;2.20;;;21.80;99.90;;;;;;5043763;28;20722;-72
2023/05/09 09:16:56;;;;;;;3.43;2.23;;;21.80;99.90;;;;;;5080601;28;20298;-72
2023/05/09 09:19:30;;;;;;;7.03;2.40;;;21.90;99.90;;;;;;5068104;28;20654;-72
2023/05/09 09:22:00;;;;;;;4.43;2.53;;;22.00;99.90;;;;;;5062916;28;20248;-73
2023/05/09 09:24:27;;;;;;;6.20;2.80;;;22.00;99.90;;;;;;5053602;28;20232;-72
2023/05/09 09:26:54;;;;;;;3.83;2.20;;;22.10;99.90;;;;;;5062769;28;20269;-72
2023/05/09 09:29:21;;;;;;;9.73;2.57;;;22.10;99.90;;;;;;5068583;28;20192;-72
2023/05/09 09:31:53;;;;;;;4.13;2.60;;;22.00;99.90;;;;;;5061394;28;20194;-72
2023/05/09 09:34:22;;;;;;;6.40;2.97;;;21.90;99.90;;;;;;5060855;28;20216;-72
2023/05/09 09:36:49;;;;;;;7.13;2.70;;;21.90;99.90;;;;;;5060985;28;20219;-72
2023/05/09 09:39:15;;;;;;;4.93;2.63;;;21.90;99.90;;;;;;5065673;28;20205;-72
2023/05/09 09:41:43;;;;;;;6.17;2.67;;;21.90;99.90;;;;;;5063640;28;20197;-72
2023/05/09 09:44:21;;;;;;;5.17;2.90;;;21.80;99.90;;;;;;5063213;28;20198;-72
2023/05/09 09:46:54;;;;;;;6.77;2.97;;;21.70;99.90;;;;;;5075259;28;20238;-72
2023/05/09 09:49:25;;;;;;;7.90;2.70;;;21.60;99.90;;;;;;5061636;28;20680;-72
2023/05/09 09:51:55;;;;;;;6.07;2.70;;;21.60;99.90;;;;;;5061338;28;20226;-72
2023/05/09 09:54:24;;;;;;;3.40;2.40;;;21.80;99.90;;;;;;5061540;28;20230;-72
2023/05/09 09:56:53;;;;;;;4.67;3.10;;;21.90;99.90;;;;;;5061808;28;20270;-72
2023/05/09 09:59:26;;;;;;;10.70;2.97;;;21.90;99.90;;;;;;5067307;28;20339;-72
2023/05/09 10:02:05;;;;;;;7.30;2.97;;;22.00;99.90;;;;;;5061073;28;20198;-73
2023/05/09 10:04:40;;;;;;;5.60;3.37;;;22.20;99.90;;;;;;5060398;28;20229;-72
2023/05/09 10:07:09;;;;;;;5.83;2.80;;;22.40;99.90;;;;;;5060104;28;20195;-72
2023/05/09 10:09:39;;;;;;;7.32;2.85;;;22.40;99.90;;;;;;5060180;28;20204;-72
2023/05/09 10:12:08;;;;;;;6.73;3.00;;;22.60;99.90;;;;;;5077216;28;20192;-72
2023/05/09 10:14:38;;;;;;;6.80;3.03;;;22.80;99.90;;;;;;5061635;28;20199;-72
2023/05/09 10:17:05;;;;;;;4.88;3.03;;;22.70;99.90;;;;;;5059279;28;20215;-73
2023/05/09 10:19:32;;;;;;;5.00;3.30;;;22.80;99.90;;;;;;5080039;28;20195;-72
2023/05/09 10:22:09;;;;;;;4.63;3.00;;;22.90;99.90;;;;;;5063194;28;20202;-72
2023/05/09 10:24:47;;;;;;;6.07;2.85;;;23.00;99.90;;;;;;5065169;28;20246;-73
2023/05/09 10:27:20;;;;;;;6.25;3.30;;;23.10;99.90;;;;;;5064114;28;20194;-72
2023/05/09 10:30:06;;;;;;;6.10;3.30;;;22.90;99.90;;;;;;5042925;28;20217;-72
2023/05/09 10:32:51;;;;;;;4.20;3.00;;;22.90;99.90;;;;;;5069774;28;20199;-72
2023/05/09 10:35:21;;;;;;;6.95;3.38;;;23.00;99.90;;;;;;5059758;28;20197;-72
2023/05/09 10:37:48;;;;;;;7.90;3.97;;;23.00;99.90;;;;;;5066677;28;20227;-72
2023/05/09 10:40:16;;;;;;;7.67;3.50;;;23.00;99.90;;;;;;5075625;28;20237;-72
2023/05/09 10:42:43;;;;;;;5.47;3.47;;;22.90;99.90;;;;;;5081691;28;20190;-72
2023/05/09 10:45:11;;;;;;;6.47;3.60;;;22.60;99.90;;;;;;5065671;28;20761;-72
2023/05/09 10:47:44;;;;;;;6.75;3.83;;;22.40;99.90;;;;;;5059175;28;20195;-73
2023/05/09 10:50:12;;;;;;;6.40;3.77;;;22.40;99.90;;;;;;5059602;28;20973;-72
2023/05/09 10:53:07;;;;;;;5.57;3.00;;;22.30;99.90;;;;;;5071332;28;20203;-72
2023/05/09 10:56:00;;;;;;;8.67;3.77;;;22.40;99.90;;;;;;5061486;28;20244;-72
2023/05/09 10:58:32;;;;;;;6.80;3.53;;;22.40;99.90;;;;;;5058798;28;20238;-72
2023/05/09 11:01:01;;;;;;;5.60;3.40;;;22.40;99.90;;;;;;5047497;28;20602;-72
2023/05/09 11:03:48;;;;;;;5.90;3.93;;;22.50;99.90;;;;;;5078312;28;20282;-72
2023/05/09 11:06:47;;;;;;;5.27;3.30;;;22.50;99.90;;;;;;5089898;28;20186;-73
2023/05/09 11:09:34;;;;;;;7.83;3.63;;;22.50;99.90;;;;;;5067151;28;20205;-73
2023/05/09 11:12:11;;;;;;;8.70;4.00;;;22.40;99.90;;;;;;5085244;28;20557;-72
2023/05/09 11:14:45;;;;;;;8.17;3.80;;;22.40;99.90;;;;;;5069092;28;20201;-72
2023/05/09 11:17:20;;;;;;;7.27;3.60;;;22.30;99.90;;;;;;5069879;28;20242;-72
2023/05/09 11:19:46;;;;;;;7.30;4.10;;;22.20;99.90;;;;;;5063665;28;20199;-72
2023/05/09 11:22:45;;;;;;;9.90;5.50;;;22.10;99.90;;;;;;5080176;28;20787;-73
2023/05/09 11:25:14;;;;;;;7.27;4.23;;;22.10;99.90;;;;;;5061408;28;20202;-73
2023/05/09 11:27:42;;;;;;;6.60;4.33;;;22.20;99.90;;;;;;5064533;28;20268;-73
2023/05/09 11:30:13;;;;;;;11.17;4.90;;;22.30;99.90;;;;;;5062771;28;20202;-72
2023/05/09 11:32:49;;;;;;;12.23;4.10;;;22.40;99.90;;;;;;5067791;28;20194;-72
2023/05/09 11:35:19;;;;;;;7.67;4.17;;;22.40;99.90;;;;;;5064616;28;20658;-72
2023/05/09 11:37:48;;;;;;;9.57;3.97;;;22.50;99.90;;;;;;5080144;28;20576;-72
2023/05/09 11:40:18;;;;;;;9.03;4.10;;;22.60;99.90;;;;;;5061562;28;20187;-72
2023/05/09 11:42:48;;;;;;;7.05;3.95;;;22.60;99.90;;;;;;5062955;28;20552;-72
2023/05/09 11:45:17;;;;;;;7.40;3.93;;;22.50;99.90;;;;;;5077903;28;20665;-72
2023/05/09 11:47:45;;;;;;;7.90;3.97;;;22.50;99.90;;;;;;5067142;28;20516;-72
2023/05/09 11:50:14;;;;;;;7.85;3.90;;;22.60;99.90;;;;;;5063702;28;20293;-72
2023/05/09 11:52:42;;;;;;;7.93;4.17;;;22.50;99.90;;;;;;5076521;28;20229;-73
2023/05/09 11:55:14;;;;;;;4.20;3.33;;;22.40;99.90;;;;;;5077044;28;20267;-72
2023/05/09 11:57:51;;;;;;;8.10;4.33;;;22.50;99.90;;;;;;5077757;28;20728;-72
2023/05/09 12:00:25;;;;;;;12.80;4.27;;;22.60;99.90;;;;;;5073388;28;20197;-72
2023/05/09 12:02:52;;;;;;;7.50;3.53;;;22.50;99.90;;;;;;5059128;28;20286;-72
2023/05/09 12:05:21;;;;;;;8.17;3.93;;;22.50;99.90;;;;;;5062039;28;20705;-73
2023/05/09 12:07:49;;;;;;;10.13;4.53;;;22.50;99.90;;;;;;5062849;28;20198;-72
2023/05/09 12:10:21;;;;;;;6.35;3.60;;;22.50;99.90;;;;;;5065275;28;20193;-72
2023/05/09 12:12:50;;;;;;;6.80;3.60;;;22.60;99.90;;;;;;5067766;28;20186;-72
2023/05/09 12:15:18;;;;;;;8.83;4.10;;;22.70;99.90;;;;;;5058682;28;20680;-72
2023/05/09 12:17:46;;;;;;;6.93;3.70;;;22.80;99.90;;;;;;5073990;28;20272;-72
2023/05/09 12:20:12;;;;;;;4.40;3.75;;;22.80;99.90;;;;;;5062311;28;20204;-72
2023/05/09 12:22:42;;;;;;;5.67;3.73;;;22.70;99.90;;;;;;5076560;28;20199;-72
2023/05/09 12:25:10;;;;;;;10.30;4.15;;;22.70;99.90;;;;;;5046343;28;20301;-72
2023/05/09 12:27:39;;;;;;;9.13;4.35;;;22.80;99.90;;;;;;5063408;28;20194;-73
2023/05/09 12:30:09;;;;;;;9.13;3.90;;;22.80;99.90;;;;;;5060782;28;20557;-72
2023/05/09 12:32:38;;;;;;;7.55;4.00;;;22.70;99.90;;;;;;5073294;28;20222;-72
2023/05/09 12:35:06;;;;;;;8.95;4.47;;;22.80;99.90;;;;;;5060000;28;20895;-72
2023/05/09 12:37:32;;;;;;;6.10;4.13;;;22.80;99.90;;;;;;5075293;28;20225;-72
2023/05/09 12:40:11;;;;;;;6.77;4.30;;;22.90;99.90;;;;;;5063514;28;20601;-73
2023/05/09 12:42:38;;;;;;;7.47;4.50;;;22.80;99.90;;;;;;5063869;28;20581;-72
2023/05/09 12:45:08;;;;;;;7.43;4.47;;;22.60;99.90;;;;;;5061491;28;21004;-72
2023/05/09 12:47:37;;;;;;;10.43;4.30;;;22.40;99.90;;;;;;5058736;28;20998;-72
2023/05/09 12:50:06;;;;;;;6.37;4.23;;;22.20;99.90;;;;;;5077582;28;20186;-73
2023/05/09 12:52:39;;;;;;;7.93;4.20;;;22.00;99.90;;;;;;5082912;28;20938;-72
2023/05/09 12:55:11;;;;;;;5.80;4.00;;;21.90;99.90;;;;;;5058963;28;20227;-72